Time;durP1;ratioP1;P1;durP2;ratioP2;P2;SDS_P1;SDS_P2;PMS_P1;PMS_P2;Temp;Humidity;BMP_temperature;BMP_pressure;BME280_temperature;BME280_humidity;BME280_pressure;Samples;Min_cycle;Max_cycle;Signal;HPM_P1;HPM_P2
2023/07/18 00:01:31;;;;;;;;;;;;;;;;;;5015210;28;19964;-64
2023/07/18 00:03:56;;;;;;;;;;;;;;;;;;5014859;28;20359;-64
2023/07/18 00:06:24;;;;;;;;;;;;;;;;;;5014882;28;19932;-63
2023/07/18 00:08:50;;;;;;;;;;;;;;;;;;5015027;28;19921;-63
2023/07/18 00:11:16;;;;;;;;;;;;;;;;;;5015103;28;19930;-63
2023/07/18 00:13:42;;;;;;;;;;;;;;;;;;5014730;28;20359;-63
2023/07/18 00:16:08;;;;;;;;;;;;;;;;;;5014833;28;19929;-63
2023/07/18 00:18:34;;;;;;;;;;;;;;;;;;5014673;28;20003;-63
2023/07/18 00:21:00;;;;;;;;;;;;;;;;;;5014681;28;20371;-63
2023/07/18 00:23:26;;;;;;;;;;;;;;;;;;5014534;28;19936;-63
2023/07/18 00:25:52;;;;;;;;;;;;;;;;;;5013326;28;20318;-63
2023/07/18 00:28:18;;;;;;;;;;;;;;;;;;5014475;28;19972;-63
2023/07/18 00:30:44;;;;;;;;;;;;;;;;;;5014661;28;19959;-63
2023/07/18 00:33:09;;;;;;;;;;;;;;;;;;5014396;28;19960;-63
2023/07/18 00:35:36;;;;;;;;;;;;;;;;;;5013804;28;19926;-63
2023/07/18 00:38:03;;;;;;;;;;;;;;;;;;5014426;28;19933;-63
2023/07/18 00:40:28;;;;;;;;;;;;;;;;;;5014504;28;19928;-63
2023/07/18 00:42:54;;;;;;;;;;;;;;;;;;5014288;28;20290;-63
2023/07/18 00:45:20;;;;;;;;;;;;;;;;;;5014233;28;19932;-63
2023/07/18 00:47:46;;;;;;;;;;;;;;;;;;5014311;28;19926;-63
2023/07/18 00:50:12;;;;;;;;;;;;;;;;;;5013967;28;19926;-63
2023/07/18 00:52:38;;;;;;;;;;;;;;;;;;5012819;28;20409;-63
2023/07/18 00:55:04;;;;;;;;;;;;;;;;;;5014066;28;19926;-63
2023/07/18 00:57:30;;;;;;;;;;;;;;;;;;5014136;28;19926;-63
2023/07/18 00:59:56;;;;;;;;;;;;;;;;;;5014004;28;20087;-63
2023/07/18 01:02:22;;;;;;;;;;;;;;;;;;5013840;28;19925;-63
2023/07/18 01:04:48;;;;;;;;;;;;;;;;;;5013796;28;20011;-63
2023/07/18 01:07:15;;;;;;;;;;;;;;;;;;5014073;28;20005;-63
2023/07/18 01:09:43;;;;;;;;;;;;;;;;;;5012473;28;19921;-63
2023/07/18 01:12:09;;;;;;;;;;;;;;;;;;5013848;28;20000;-63
2023/07/18 01:14:35;;;;;;;;;;;;;;;;;;5012394;28;20032;-63
2023/07/18 01:17:01;;;;;;;;;;;;;;;;;;5013628;28;19921;-63
2023/07/18 01:19:26;;;;;;;;;;;;;;;;;;5013481;28;19960;-63
2023/07/18 01:21:52;;;;;;;;;;;;;;;;;;5013066;28;19930;-63
2023/07/18 01:24:18;;;;;;;;;;;;;;;;;;5012639;28;19921;-63
2023/07/18 01:26:44;;;;;;;;;;;;;;;;;;5013092;28;20342;-64
2023/07/18 01:29:10;;;;;;;;;;;;;;;;;;5012634;28;19996;-63
2023/07/18 01:31:36;;;;;;;;;;;;;;;;;;5012672;28;19929;-63
2023/07/18 01:34:04;;;;;;;;;;;;;;;;;;5013184;28;20461;-63
2023/07/18 01:36:30;;;;;;;;;;;;;;;;;;5013760;28;20302;-63
2023/07/18 01:38:57;;;;;;;;;;;;;;;;;;5013350;28;19929;-63
2023/07/18 01:41:23;;;;;;;;;;;;;;;;;;5013154;28;19925;-64
2023/07/18 01:43:49;;;;;;;;;;;;;;;;;;5013278;28;20268;-63
2023/07/18 01:46:14;;;;;;;;;;;;;;;;;;5012035;28;20338;-63
2023/07/18 01:48:40;;;;;;;;;;;;;;;;;;5013350;28;19922;-63
2023/07/18 01:51:06;;;;;;;;;;;;;;;;;;5012615;28;19925;-63
2023/07/18 01:53:32;;;;;;;;;;;;;;;;;;5011122;28;19925;-63
2023/07/18 01:55:58;;;;;;;;;;;;;;;;;;4994866;28;20327;-63
2023/07/18 01:58:24;;;;;;;;;;;;;;;;;;5012599;28;19925;-63
2023/07/18 02:00:50;;;;;;;;;;;;;;;;;;5011789;28;19929;-63
2023/07/18 02:03:16;;;;;;;;;;;;;;;;;;5012123;28;19928;-63
2023/07/18 02:05:43;;;;;;;;;;;;;;;;;;5011904;28;19921;-64
2023/07/18 02:08:09;;;;;;;;;;;;;;;;;;5011921;28;19932;-64
2023/07/18 02:10:34;;;;;;;;;;;;;;;;;;5011745;28;19921;-63
2023/07/18 02:13:02;;;;;;;;;;;;;;;;;;5011872;28;19929;-63
2023/07/18 02:15:28;;;;;;;;;;;;;;;;;;5011660;28;19948;-63
2023/07/18 02:17:54;;;;;;;;;;;;;;;;;;5012030;28;19929;-63
2023/07/18 02:20:20;;;;;;;;;;;;;;;;;;5012494;28;19948;-63
2023/07/18 02:22:46;;;;;;;;;;;;;;;;;;5027558;28;19929;-63
2023/07/18 02:25:15;;;;;;;;;;;;;;;;;;5012498;28;19922;-63
2023/07/18 02:27:41;;;;;;;;;;;;;;;;;;5012369;28;20381;-63
2023/07/18 02:30:08;;;;;;;;;;;;;;;;;;5012215;28;19956;-63
2023/07/18 02:32:34;;;;;;;;;;;;;;;;;;5012352;28;20371;-63
2023/07/18 02:35:00;;;;;;;;;;;;;;;;;;5012495;28;19925;-64
2023/07/18 02:37:26;;;;;;;;;;;;;;;;;;5012220;28;19930;-64
2023/07/18 02:39:52;;;;;;;;;;;;;;;;;;5012226;28;19951;-64
2023/07/18 02:42:18;;;;;;;;;;;;;;;;;;5027251;28;19925;-64
2023/07/18 02:44:44;;;;;;;;;;;;;;;;;;5027270;28;19925;-64
2023/07/18 02:47:10;;;;;;;;;;;;;;;;;;5012316;28;19944;-64
2023/07/18 02:49:36;;;;;;;;;;;;;;;;;;5012325;28;19926;-64
2023/07/18 02:52:02;;;;;;;;;;;;;;;;;;5012042;28;19921;-64
2023/07/18 02:54:28;;;;;;;;;;;;;;;;;;5012208;28;19998;-63
2023/07/18 02:56:56;;;;;;;;;;;;;;;;;;5011935;28;19999;-64
2023/07/18 02:59:22;;;;;;;;;;;;;;;;;;5010425;28;19933;-63
2023/07/18 03:01:50;;;;;;;;;;;;;;;;;;5012199;28;19922;-63
2023/07/18 03:04:16;;;;;;;;;;;;;;;;;;5012093;28;19932;-63
2023/07/18 03:06:42;;;;;;;;;;;;;;;;;;5011974;28;19926;-63
2023/07/18 03:09:09;;;;;;;;;;;;;;;;;;5011953;28;19922;-64
2023/07/18 03:11:35;;;;;;;;;;;;;;;;;;5011939;28;19996;-63
2023/07/18 03:14:01;;;;;;;;;;;;;;;;;;5011883;28;20398;-63
2023/07/18 03:16:26;;;;;;;;;;;;;;;;;;5011938;28;19925;-63
2023/07/18 03:18:54;;;;;;;;;;;;;;;;;;5011774;28;19932;-63
2023/07/18 03:21:20;;;;;;;;;;;;;;;;;;5010698;28;20403;-63
2023/07/18 03:23:45;;;;;;;;;;;;;;;;;;5030620;28;20016;-63
2023/07/18 03:26:11;;;;;;;;;;;;;;;;;;5030839;28;19922;-64
2023/07/18 03:28:37;;;;;;;;;;;;;;;;;;5030921;28;20469;-63
2023/07/18 03:31:03;;;;;;;;;;;;;;;;;;5030829;28;19932;-63
2023/07/18 03:33:29;;;;;;;;;;;;;;;;;;5030902;28;19921;-64
2023/07/18 03:35:55;;;;;;;;;;;;;;;;;;5031237;28;19975;-63
2023/07/18 03:38:21;;;;;;;;;;;;;;;;;;5029814;28;19965;-63
2023/07/18 03:40:47;;;;;;;;;;;;;;;;;;5030909;28;19947;-63
2023/07/18 03:43:12;;;;;;;;;;;;;;;;;;5031001;28;19965;-63
2023/07/18 03:45:38;;;;;;;;;;;;;;;;;;5030768;28;20004;-63
2023/07/18 03:48:04;;;;;;;;;;;;;;;;;;5030303;28;19927;-63
2023/07/18 03:50:30;;;;;;;;;;;;;;;;;;5030698;28;19929;-63
2023/07/18 03:52:56;;;;;;;;;;;;;;;;;;5031119;28;19925;-64
2023/07/18 03:55:22;;;;;;;;;;;;;;;;;;5013391;28;19928;-63
2023/07/18 03:57:48;;;;;;;;;;;;;;;;;;5030931;28;19925;-63
2023/07/18 04:00:16;;;;;;;;;;;;;;;;;;5031180;28;19925;-64
2023/07/18 04:02:42;;;;;;;;;;;;;;;;;;5031222;28;19925;-63
2023/07/18 04:05:08;;;;;;;;;;;;;;;;;;5031219;28;19959;-63
2023/07/18 04:07:34;;;;;;;;;;;;;;;;;;5030959;28;19928;-63
2023/07/18 04:10:00;;;;;;;;;;;;;;;;;;5032321;28;20363;-63
2023/07/18 04:12:26;;;;;;;;;;;;;;;;;;5034443;28;19925;-63
2023/07/18 04:14:51;;;;;;;;;;;;;;;;;;5034499;28;19995;-63
2023/07/18 04:17:17;;;;;;;;;;;;;;;;;;5034425;28;19921;-64
2023/07/18 04:19:43;;;;;;;;;;;;;;;;;;5034579;28;19921;-63
2023/07/18 04:22:09;;;;;;;;;;;;;;;;;;5032877;28;20012;-63
2023/07/18 04:24:35;;;;;;;;;;;;;;;;;;5034426;28;19922;-63
2023/07/18 04:27:01;;;;;;;;;;;;;;;;;;5034318;28;19928;-63
2023/07/18 04:29:27;;;;;;;;;;;;;;;;;;5034283;28;19921;-63
2023/07/18 04:31:53;;;;;;;;;;;;;;;;;;5034438;28;19971;-63
2023/07/18 04:34:19;;;;;;;;;;;;;;;;;;5034233;28;19928;-63
2023/07/18 04:36:45;;;;;;;;;;;;;;;;;;5034281;28;20016;-63
2023/07/18 04:39:11;;;;;;;;;;;;;;;;;;5034022;28;20016;-63
2023/07/18 04:41:37;;;;;;;;;;;;;;;;;;5034177;28;19925;-63
2023/07/18 04:44:03;;;;;;;;;;;;;;;;;;5034016;28;19928;-63
2023/07/18 04:46:29;;;;;;;;;;;;;;;;;;5034167;28;20326;-63
2023/07/18 04:48:55;;;;;;;;;;;;;;;;;;5032648;28;19929;-63
2023/07/18 04:51:21;;;;;;;;;;;;;;;;;;5033996;28;19921;-63
2023/07/18 04:53:47;;;;;;;;;;;;;;;;;;5033742;28;19969;-63
2023/07/18 04:56:12;;;;;;;;;;;;;;;;;;5033861;28;19927;-63
2023/07/18 04:58:38;;;;;;;;;;;;;;;;;;5033679;28;20337;-64
2023/07/18 05:01:04;;;;;;;;;;;;;;;;;;5032285;28;19924;-64
2023/07/18 05:03:30;;;;;;;;;;;;;;;;;;5033658;28;19922;-64
2023/07/18 05:05:56;;;;;;;;;;;;;;;;;;5033711;28;20016;-64
2023/07/18 05:08:22;;;;;;;;;;;;;;;;;;5032048;28;19932;-63
2023/07/18 05:10:48;;;;;;;;;;;;;;;;;;5033582;28;19922;-64
2023/07/18 05:13:14;;;;;;;;;;;;;;;;;;5033539;28;20033;-64
2023/07/18 05:15:40;;;;;;;;;;;;;;;;;;5033581;28;19921;-63
2023/07/18 05:18:06;;;;;;;;;;;;;;;;;;5033245;28;19940;-63
2023/07/18 05:20:32;;;;;;;;;;;;;;;;;;5032929;28;19925;-64
2023/07/18 05:22:58;;;;;;;;;;;;;;;;;;5032012;28;20393;-64
2023/07/18 05:25:24;;;;;;;;;;;;;;;;;;5032912;28;20243;-64
2023/07/18 05:27:50;;;;;;;;;;;;;;;;;;5032527;28;19925;-64
2023/07/18 05:30:16;;;;;;;;;;;;;;;;;;5032223;28;19924;-64
2023/07/18 05:32:42;;;;;;;;;;;;;;;;;;5032838;28;20279;-64
2023/07/18 05:35:13;;;;;;;;;;;;;;;;;;5031451;28;19979;-64
2023/07/18 05:37:39;;;;;;;;;;;;;;;;;;5032917;28;19929;-63
2023/07/18 05:40:05;;;;;;;;;;;;;;;;;;5032988;28;19928;-63
2023/07/18 05:42:31;;;;;;;;;;;;;;;;;;5032837;28;20429;-64
2023/07/18 05:44:57;;;;;;;;;;;;;;;;;;5032877;28;20020;-64
2023/07/18 05:47:23;;;;;;;;;;;;;;;;;;5032925;28;19999;-64
2023/07/18 05:49:49;;;;;;;;;;;;;;;;;;5032636;28;20378;-66
2023/07/18 05:52:15;;;;;;;;;;;;;;;;;;5032626;28;19921;-64
2023/07/18 05:54:41;;;;;;;;;;;;;;;;;;5032738;28;19928;-64
2023/07/18 05:57:07;;;;;;;;;;;;;;;;;;5032485;28;19925;-64
2023/07/18 05:59:33;;;;;;;;;;;;;;;;;;5032698;28;19932;-64
2023/07/18 06:01:59;;;;;;;;;;;;;;;;;;5032509;28;19921;-64
2023/07/18 06:04:25;;;;;;;;;;;;;;;;;;5031227;28;19941;-64
2023/07/18 06:06:51;;;;;;;;;;;;;;;;;;5031938;28;20249;-64
2023/07/18 06:09:17;;;;;;;;;;;;;;;;;;5032005;28;19921;-64
2023/07/18 06:11:43;;;;;;;;;;;;;;;;;;5033245;28;19922;-64
2023/07/18 06:14:08;;;;;;;;;;;;;;;;;;5032343;28;19925;-64
2023/07/18 06:16:34;;;;;;;;;;;;;;;;;;5032260;28;19928;-64
2023/07/18 06:19:00;;;;;;;;;;;;;;;;;;5032147;28;19925;-64
2023/07/18 06:21:26;;;;;;;;;;;;;;;;;;5036064;22;19919;-64
2023/07/18 06:23:52;;;;;;;;;;;;;;;;;;4994170;28;19932;-64
2023/07/18 06:26:18;;;;;;;;;;;;;;;;;;5012369;28;19925;-64
2023/07/18 06:28:44;;;;;;;;;;;;;;;;;;5012368;28;19976;-64
2023/07/18 06:31:10;;;;;;;;;;;;;;;;;;5012377;28;19968;-64
2023/07/18 06:33:36;;;;;;;;;;;;;;;;;;5011810;28;19956;-64
2023/07/18 06:36:02;;;;;;;;;;;;;;;;;;5012280;28;20334;-64
2023/07/18 06:38:28;;;;;;;;;;;;;;;;;;5012221;28;19980;-65
2023/07/18 06:40:55;;;;;;;;;;;;;;;;;;5012394;28;19921;-64
2023/07/18 06:43:21;;;;;;;;;;;;;;;;;;5011565;28;19921;-65
2023/07/18 06:45:47;;;;;;;;;;;;;;;;;;5011318;28;20628;-64
2023/07/18 06:48:12;;;;;;;;;;;;;;;;;;5010418;28;19926;-65
2023/07/18 06:50:39;;;;;;;;;;;;;;;;;;5011504;28;19925;-64
2023/07/18 06:53:05;;;;;;;;;;;;;;;;;;5011496;28;20158;-64
2023/07/18 06:55:31;;;;;;;;;;;;;;;;;;5012057;28;19972;-65
2023/07/18 06:57:57;;;;;;;;;;;;;;;;;;5010717;28;19929;-64
2023/07/18 07:00:23;;;;;;;;;;;;;;;;;;5012317;28;20263;-64
2023/07/18 07:02:49;;;;;;;;;;;;;;;;;;5012145;28;19967;-64
2023/07/18 07:05:15;;;;;;;;;;;;;;;;;;5012005;28;19996;-65
2023/07/18 07:07:41;;;;;;;;;;;;;;;;;;5011921;28;20011;-64
2023/07/18 07:10:08;;;;;;;;;;;;;;;;;;5010864;28;19926;-64
2023/07/18 07:12:34;;;;;;;;;;;;;;;;;;5012119;28;20422;-64
2023/07/18 07:15:01;;;;;;;;;;;;;;;;;;5012038;28;20004;-64
2023/07/18 07:17:27;;;;;;;;;;;;;;;;;;5012055;28;19925;-64
2023/07/18 07:19:52;;;;;;;;;;;;;;;;;;5011830;28;19926;-64
2023/07/18 07:22:18;;;;;;;;;;;;;;;;;;5012009;28;20543;-64
2023/07/18 07:24:44;;;;;;;;;;;;;;;;;;5011888;28;19927;-64
2023/07/18 07:27:10;;;;;;;;;;;;;;;;;;5011916;28;20310;-64
2023/07/18 07:29:36;;;;;;;;;;;;;;;;;;5011664;28;19925;-64
2023/07/18 07:32:02;;;;;;;;;;;;;;;;;;5011784;28;19929;-64
2023/07/18 07:34:29;;;;;;;;;;;;;;;;;;5011813;28;19921;-65
2023/07/18 07:36:56;;;;;;;;;;;;;;;;;;5012086;28;20286;-64
2023/07/18 07:39:22;;;;;;;;;;;;;;;;;;5011743;28;19936;-64
2023/07/18 07:41:48;;;;;;;;;;;;;;;;;;5011820;28;19922;-64
2023/07/18 07:44:14;;;;;;;;;;;;;;;;;;5011781;28;19921;-64
2023/07/18 07:46:40;;;;;;;;;;;;;;;;;;5015437;28;20352;-64
2023/07/18 07:49:06;;;;;;;;;;;;;;;;;;5015683;28;19926;-64
2023/07/18 07:51:33;;;;;;;;;;;;;;;;;;5015705;28;19963;-64
2023/07/18 07:53:59;;;;;;;;;;;;;;;;;;5015533;28;20008;-64
2023/07/18 07:56:25;;;;;;;;;;;;;;;;;;5014006;28;20303;-64
2023/07/18 07:58:51;;;;;;;;;;;;;;;;;;5015026;28;20043;-64
2023/07/18 08:01:17;;;;;;;;;;;;;;;;;;5015211;28;19929;-64
2023/07/18 08:03:43;;;;;;;;;;;;;;;;;;5013932;28;19979;-64
2023/07/18 08:06:08;;;;;;;;;;;;;;;;;;5015305;28;19925;-64
2023/07/18 08:08:35;;;;;;;;;;;;;;;;;;5015177;28;19922;-64
2023/07/18 08:11:01;;;;;;;;;;;;;;;;;;5013673;28;19921;-64
2023/07/18 08:13:29;;;;;;;;;;;;;;;;;;5014526;28;21384;-64
2023/07/18 08:15:55;;;;;;;;;;;;;;;;;;5015007;28;19925;-64
2023/07/18 08:18:21;;;;;;;;;;;;;;;;;;5015127;28;19925;-64
2023/07/18 08:20:47;;;;;;;;;;;;;;;;;;5014845;28;20012;-64
2023/07/18 08:23:14;;;;;;;;;;;;;;;;;;5014544;28;19979;-64
2023/07/18 08:25:40;;;;;;;;;;;;;;;;;;5014717;28;19968;-64
2023/07/18 08:28:06;;;;;;;;;;;;;;;;;;5014849;28;19960;-64
2023/07/18 08:30:32;;;;;;;;;;;;;;;;;;5014642;28;19929;-64
2023/07/18 08:32:58;;;;;;;;;;;;;;;;;;5014599;28;19976;-64
2023/07/18 08:35:24;;;;;;;;;;;;;;;;;;5014728;28;20355;-64
2023/07/18 08:37:50;;;;;;;;;;;;;;;;;;5014437;28;19988;-64
2023/07/18 08:40:15;;;;;;;;;;;;;;;;;;5013138;28;19925;-65
2023/07/18 08:42:41;;;;;;;;;;;;;;;;;;5014354;28;19921;-65
2023/07/18 08:45:07;;;;;;;;;;;;;;;;;;5013294;28;20288;-65
2023/07/18 08:47:33;;;;;;;;;;;;;;;;;;5013831;28;19927;-65
2023/07/18 08:49:59;;;;;;;;;;;;;;;;;;5013973;28;19941;-64
2023/07/18 08:52:25;;;;;;;;;;;;;;;;;;5013663;28;19922;-64
2023/07/18 08:54:51;;;;;;;;;;;;;;;;;;5013443;28;19967;-64
2023/07/18 08:57:17;;;;;;;;;;;;;;;;;;5013759;28;20700;-64
2023/07/18 08:59:43;;;;;;;;;;;;;;;;;;5014198;28;20372;-64
2023/07/18 09:02:09;;;;;;;;;;;;;;;;;;5013036;28;20012;-64
2023/07/18 09:04:35;;;;;;;;;;;;;;;;;;5013023;28;19928;-64
2023/07/18 09:07:01;;;;;;;;;;;;;;;;;;5013929;28;19963;-64
2023/07/18 09:09:27;;;;;;;;;;;;;;;;;;5014039;28;20362;-64
2023/07/18 09:11:53;;;;;;;;;;;;;;;;;;5013826;28;19921;-64
2023/07/18 09:14:19;;;;;;;;;;;;;;;;;;5013944;28;19921;-64
2023/07/18 09:16:44;;;;;;;;;;;;;;;;;;5013948;28;19999;-64
2023/07/18 09:19:10;;;;;;;;;;;;;;;;;;5013780;28;19929;-64
2023/07/18 09:21:36;;;;;;;;;;;;;;;;;;5013713;28;20016;-64
2023/07/18 09:24:02;;;;;;;;;;;;;;;;;;5013890;28;19943;-64
2023/07/18 09:26:28;;;;;;;;;;;;;;;;;;5013587;28;20359;-64
2023/07/18 09:28:54;;;;;;;;;;;;;;;;;;5012212;28;19932;-64
2023/07/18 09:31:23;;;;;;;;;;;;;;;;;;5013649;28;19921;-64
2023/07/18 09:33:49;;;;;;;;;;;;;;;;;;5013606;28;20008;-64
2023/07/18 09:36:15;;;;;;;;;;;;;;;;;;5011462;28;20020;-65
2023/07/18 09:38:41;;;;;;;;;;;;;;;;;;5012425;28;20272;-65
2023/07/18 09:41:07;;;;;;;;;;;;;;;;;;5011893;28;19925;-64
2023/07/18 09:43:33;;;;;;;;;;;;;;;;;;5013092;28;19926;-65
2023/07/18 09:45:58;;;;;;;;;;;;;;;;;;5013195;28;20579;-64
2023/07/18 09:48:24;;;;;;;;;;;;;;;;;;5013302;28;19925;-65
2023/07/18 09:50:50;;;;;;;;;;;;;;;;;;5013163;28;19930;-64
2023/07/18 09:53:16;;;;;;;;;;;;;;;;;;5011903;28;19929;-64
2023/07/18 09:55:42;;;;;;;;;;;;;;;;;;5013032;28;19976;-64
2023/07/18 09:58:08;;;;;;;;;;;;;;;;;;5012972;28;20382;-64
2023/07/18 10:00:35;;;;;;;;;;;;;;;;;;5013188;28;20413;-64
2023/07/18 10:03:01;;;;;;;;;;;;;;;;;;5013054;28;20056;-64
2023/07/18 10:05:27;;;;;;;;;;;;;;;;;;5013164;28;20332;-64
2023/07/18 10:07:53;;;;;;;;;;;;;;;;;;5012194;28;19927;-64
2023/07/18 10:10:19;;;;;;;;;;;;;;;;;;5012946;28;19921;-64
2023/07/18 10:12:45;;;;;;;;;;;;;;;;;;5012697;28;19932;-64
2023/07/18 10:15:10;;;;;;;;;;;;;;;;;;5013036;28;19921;-64
2023/07/18 10:17:36;;;;;;;;;;;;;;;;;;5011233;28;19971;-64
2023/07/18 10:20:04;;;;;;;;;;;;;;;;;;5012781;28;19922;-64
2023/07/18 10:22:30;;;;;;;;;;;;;;;;;;5012638;28;19926;-64
2023/07/18 10:24:56;;;;;;;;;;;;;;;;;;5012712;28;20600;-65
2023/07/18 10:27:24;;;;;;;;;;;;;;;;;;5012648;28;19980;-64
2023/07/18 10:29:50;;;;;;;;;;;;;;;;;;5011283;28;19932;-64
2023/07/18 10:32:16;;;;;;;;;;;;;;;;;;5012565;28;20000;-64
2023/07/18 10:34:42;;;;;;;;;;;;;;;;;;5012648;28;19921;-65
2023/07/18 10:37:08;;;;;;;;;;;;;;;;;;5012486;28;19925;-64
2023/07/18 10:39:34;;;;;;;;;;;;;;;;;;5012447;28;19930;-64
2023/07/18 10:42:00;;;;;;;;;;;;;;;;;;5012606;28;19928;-64
2023/07/18 10:44:26;;;;;;;;;;;;;;;;;;5012474;28;19922;-64
2023/07/18 10:46:52;;;;;;;;;;;;;;;;;;5011826;28;20415;-65
2023/07/18 10:49:18;;;;;;;;;;;;;;;;;;5011979;28;19930;-65
2023/07/18 10:51:44;;;;;;;;;;;;;;;;;;5011742;28;20409;-65
2023/07/18 10:54:11;;;;;;;;;;;;;;;;;;5011645;28;19921;-64
2023/07/18 10:56:37;;;;;;;;;;;;;;;;;;5011665;28;19925;-64
2023/07/18 10:59:03;;;;;;;;;;;;;;;;;;5010834;28;19932;-65
2023/07/18 11:01:29;;;;;;;;;;;;;;;;;;5010893;28;19983;-64
2023/07/18 11:03:55;;;;;;;;;;;;;;;;;;5012064;28;19921;-64
2023/07/18 11:06:21;;;;;;;;;;;;;;;;;;5010834;28;19925;-64
2023/07/18 11:08:47;;;;;;;;;;;;;;;;;;5010534;28;20761;-65
2023/07/18 11:11:14;;;;;;;;;;;;;;;;;;5012318;28;19929;-64
2023/07/18 11:13:42;;;;;;;;;;;;;;;;;;5010729;28;19925;-64
2023/07/18 11:16:08;;;;;;;;;;;;;;;;;;5012267;28;19922;-65
2023/07/18 11:18:34;;;;;;;;;;;;;;;;;;5012627;28;19929;-64
2023/07/18 11:21:00;;;;;;;;;;;;;;;;;;5015680;28;19972;-64
2023/07/18 11:23:26;;;;;;;;;;;;;;;;;;5015422;28;19976;-64
2023/07/18 11:25:53;;;;;;;;;;;;;;;;;;5015785;28;19932;-64
2023/07/18 11:28:19;;;;;;;;;;;;;;;;;;5015921;28;19936;-65
2023/07/18 11:30:45;;;;;;;;;;;;;;;;;;5016049;28;19922;-65
2023/07/18 11:33:11;;;;;;;;;;;;;;;;;;5014065;28;20260;-64
2023/07/18 11:35:37;;;;;;;;;;;;;;;;;;5015479;28;19925;-64
2023/07/18 11:38:03;;;;;;;;;;;;;;;;;;5015157;28;20406;-64
2023/07/18 11:40:30;;;;;;;;;;;;;;;;;;5015763;28;19965;-64
2023/07/18 11:43:00;;;;;;;;;;;;;;;;;;5014184;28;20355;-65
2023/07/18 11:45:27;;;;;;;;;;;;;;;;;;5015712;28;19929;-64
2023/07/18 11:47:53;;;;;;;;;;;;;;;;;;5014194;28;19925;-64
2023/07/18 11:50:19;;;;;;;;;;;;;;;;;;5015493;28;19926;-64
2023/07/18 11:52:45;;;;;;;;;;;;;;;;;;5015439;28;19932;-64
2023/07/18 11:55:11;;;;;;;;;;;;;;;;;;5015532;28;19936;-64
2023/07/18 11:57:37;;;;;;;;;;;;;;;;;;5015183;28;20610;-64
2023/07/18 12:00:04;;;;;;;;;;;;;;;;;;5015402;28;19948;-64
2023/07/18 12:02:30;;;;;;;;;;;;;;;;;;5015438;28;19925;-64
2023/07/18 12:04:56;;;;;;;;;;;;;;;;;;5015094;28;19933;-64
2023/07/18 12:07:23;;;;;;;;;;;;;;;;;;5015261;28;20348;-64
2023/07/18 12:09:49;;;;;;;;;;;;;;;;;;5015158;28;19928;-64
2023/07/18 12:12:15;;;;;;;;;;;;;;;;;;5015236;28;19925;-64
2023/07/18 12:14:41;;;;;;;;;;;;;;;;;;5015138;28;19922;-64
2023/07/18 12:17:07;;;;;;;;;;;;;;;;;;5015216;28;19925;-64
2023/07/18 12:19:33;;;;;;;;;;;;;;;;;;5013453;28;19936;-64
2023/07/18 12:21:59;;;;;;;;;;;;;;;;;;5014625;28;19949;-64
2023/07/18 12:24:25;;;;;;;;;;;;;;;;;;5014936;28;20433;-65
2023/07/18 12:26:51;;;;;;;;;;;;;;;;;;5014972;28;19921;-64
2023/07/18 12:29:18;;;;;;;;;;;;;;;;;;5014832;28;19925;-64
2023/07/18 12:31:45;;;;;;;;;;;;;;;;;;5013962;28;19925;-64
2023/07/18 12:34:11;;;;;;;;;;;;;;;;;;5013495;28;19957;-64
2023/07/18 12:36:38;;;;;;;;;;;;;;;;;;5014633;28;20367;-64
2023/07/18 12:39:04;;;;;;;;;;;;;;;;;;5014463;28;20315;-64
2023/07/18 12:41:30;;;;;;;;;;;;;;;;;;5014654;28;19921;-64
2023/07/18 12:43:56;;;;;;;;;;;;;;;;;;5014539;28;19921;-64
2023/07/18 12:46:26;;;;;;;;;;;;;;;;;;5014447;28;19932;-65
2023/07/18 12:48:52;;;;;;;;;;;;;;;;;;5014033;28;20368;-64
2023/07/18 12:51:18;;;;;;;;;;;;;;;;;;5014271;28;19980;-65
2023/07/18 12:53:44;;;;;;;;;;;;;;;;;;5014137;28;19925;-64
2023/07/18 12:56:10;;;;;;;;;;;;;;;;;;5013579;28;20021;-65
2023/07/18 12:58:36;;;;;;;;;;;;;;;;;;5013621;28;19926;-65
2023/07/18 13:01:01;;;;;;;;;;;;;;;;;;5013983;28;19926;-64
2023/07/18 13:03:27;;;;;;;;;;;;;;;;;;5012862;28;20315;-64
2023/07/18 13:05:53;;;;;;;;;;;;;;;;;;5014162;28;19976;-64
2023/07/18 13:08:19;;;;;;;;;;;;;;;;;;5013963;28;19961;-64
2023/07/18 13:10:45;;;;;;;;;;;;;;;;;;5014031;28;20024;-64
2023/07/18 13:13:11;;;;;;;;;;;;;;;;;;5014113;28;19925;-64
2023/07/18 13:15:37;;;;;;;;;;;;;;;;;;5012586;28;19925;-64
2023/07/18 13:18:03;;;;;;;;;;;;;;;;;;5012596;28;19925;-64
2023/07/18 13:20:29;;;;;;;;;;;;;;;;;;5013905;28;20371;-64
2023/07/18 13:22:55;;;;;;;;;;;;;;;;;;5013668;28;19925;-64
2023/07/18 13:25:21;;;;;;;;;;;;;;;;;;5012507;28;19995;-64
2023/07/18 13:27:47;;;;;;;;;;;;;;;;;;5013698;28;20419;-64
2023/07/18 13:30:13;;;;;;;;;;;;;;;;;;5013585;28;19925;-64
2023/07/18 13:32:39;;;;;;;;;;;;;;;;;;5013520;28;20295;-64
2023/07/18 13:35:05;;;;;;;;;;;;;;;;;;5013462;28;19991;-64
2023/07/18 13:37:31;;;;;;;;;;;;;;;;;;5013712;28;19926;-64
2023/07/18 13:39:56;;;;;;;;;;;;;;;;;;5012249;28;19933;-64
2023/07/18 13:42:23;;;;;;;;;;;;;;;;;;5012141;28;20551;-64
2023/07/18 13:44:50;;;;;;;;;;;;;;;;;;5011887;28;19929;-64
2023/07/18 13:47:16;;;;;;;;;;;;;;;;;;5013350;28;19922;-64
2023/07/18 13:49:42;;;;;;;;;;;;;;;;;;5013395;28;20394;-64
2023/07/18 13:52:08;;;;;;;;;;;;;;;;;;5013489;28;19925;-64
2023/07/18 13:54:34;;;;;;;;;;;;;;;;;;5013392;28;19921;-64
2023/07/18 13:57:00;;;;;;;;;;;;;;;;;;5012897;28;19922;-64
2023/07/18 13:59:26;;;;;;;;;;;;;;;;;;5013127;28;19932;-64
2023/07/18 14:01:52;;;;;;;;;;;;;;;;;;5012952;28;19925;-64
2023/07/18 14:04:18;;;;;;;;;;;;;;;;;;5013253;28;19933;-64
2023/07/18 14:06:44;;;;;;;;;;;;;;;;;;5013031;28;19983;-64
2023/07/18 14:09:09;;;;;;;;;;;;;;;;;;5012933;28;19945;-64
2023/07/18 14:11:35;;;;;;;;;;;;;;;;;;5012867;28;20551;-64
2023/07/18 14:14:01;;;;;;;;;;;;;;;;;;5012798;28;19922;-64
2023/07/18 14:16:27;;;;;;;;;;;;;;;;;;5012612;28;19929;-64
2023/07/18 14:18:56;;;;;;;;;;;;;;;;;;5012964;28;19925;-64
2023/07/18 14:21:22;;;;;;;;;;;;;;;;;;5011384;28;19984;-64
2023/07/18 14:23:48;;;;;;;;;;;;;;;;;;5011498;28;20549;-64
2023/07/18 14:26:14;;;;;;;;;;;;;;;;;;5012625;28;19921;-64
2023/07/18 14:28:39;;;;;;;;;;;;;;;;;;5012554;28;19928;-64
2023/07/18 14:31:05;;;;;;;;;;;;;;;;;;5012628;28;19933;-64
2023/07/18 14:33:31;;;;;;;;;;;;;;;;;;5012670;28;20291;-64
2023/07/18 14:35:58;;;;;;;;;;;;;;;;;;5012497;28;19925;-64
2023/07/18 14:38:24;;;;;;;;;;;;;;;;;;5012620;28;19925;-64
2023/07/18 14:40:51;;;;;;;;;;;;;;;;;;5012511;28;19925;-64
2023/07/18 14:43:17;;;;;;;;;;;;;;;;;;5011133;28;19929;-64
2023/07/18 14:45:43;;;;;;;;;;;;;;;;;;4994462;28;19926;-64
2023/07/18 14:48:09;;;;;;;;;;;;;;;;;;5010845;28;19929;-64
2023/07/18 14:50:35;;;;;;;;;;;;;;;;;;5011323;28;19921;-64
2023/07/18 14:53:00;;;;;;;;;;;;;;;;;;5011079;28;19922;-64
2023/07/18 14:55:26;;;;;;;;;;;;;;;;;;5012073;28;19930;-65
2023/07/18 14:57:52;;;;;;;;;;;;;;;;;;5011363;28;19930;-64
2023/07/18 15:00:19;;;;;;;;;;;;;;;;;;5011755;28;19944;-64
2023/07/18 15:02:44;;;;;;;;;;;;;;;;;;5011518;28;20006;-64
2023/07/18 15:05:10;;;;;;;;;;;;;;;;;;5012027;28;20444;-64
2023/07/18 15:07:36;;;;;;;;;;;;;;;;;;5012013;28;19936;-64
2023/07/18 15:10:02;;;;;;;;;;;;;;;;;;5011928;28;19992;-64
2023/07/18 15:12:28;;;;;;;;;;;;;;;;;;5011850;28;19937;-64
2023/07/18 15:14:54;;;;;;;;;;;;;;;;;;5010740;28;19921;-64
2023/07/18 15:17:20;;;;;;;;;;;;;;;;;;5012120;28;19967;-64
2023/07/18 15:19:49;;;;;;;;;;;;;;;;;;5010725;28;20288;-64
2023/07/18 15:22:15;;;;;;;;;;;;;;;;;;5011730;28;19951;-64
2023/07/18 15:24:41;;;;;;;;;;;;;;;;;;5011906;28;19925;-64
2023/07/18 15:27:07;;;;;;;;;;;;;;;;;;5011815;28;19921;-64
2023/07/18 15:29:33;;;;;;;;;;;;;;;;;;5011972;28;19929;-64
2023/07/18 15:31:59;;;;;;;;;;;;;;;;;;5011859;28;20087;-64
2023/07/18 15:34:25;;;;;;;;;;;;;;;;;;5010395;28;20374;-65
2023/07/18 15:36:51;;;;;;;;;;;;;;;;;;5010145;28;19931;-65
2023/07/18 15:39:17;;;;;;;;;;;;;;;;;;5011786;28;20159;-64
2023/07/18 15:41:43;;;;;;;;;;;;;;;;;;5011820;28;20013;-65
2023/07/18 15:44:09;;;;;;;;;;;;;;;;;;5011865;28;19921;-65
2023/07/18 15:46:35;;;;;;;;;;;;;;;;;;5011551;28;19928;-65
2023/07/18 15:49:01;;;;;;;;;;;;;;;;;;5011614;28;19980;-65
2023/07/18 15:51:27;;;;;;;;;;;;;;;;;;5008868;28;19980;-65
2023/07/18 15:53:53;;;;;;;;;;;;;;;;;;5011700;28;19921;-64
2023/07/18 15:56:19;;;;;;;;;;;;;;;;;;5011735;28;19928;-64
2023/07/18 15:58:44;;;;;;;;;;;;;;;;;;5011452;28;19929;-64
2023/07/18 16:01:10;;;;;;;;;;;;;;;;;;5011770;28;19976;-64
2023/07/18 16:03:36;;;;;;;;;;;;;;;;;;5011635;28;19922;-64
2023/07/18 16:06:02;;;;;;;;;;;;;;;;;;5012932;28;19925;-64
2023/07/18 16:08:28;;;;;;;;;;;;;;;;;;5015110;28;19925;-64
2023/07/18 16:10:54;;;;;;;;;;;;;;;;;;5015150;28;19921;-64
2023/07/18 16:13:20;;;;;;;;;;;;;;;;;;5015284;28;19975;-64
2023/07/18 16:15:46;;;;;;;;;;;;;;;;;;5015235;28;20694;-64
2023/07/18 16:18:13;;;;;;;;;;;;;;;;;;5014847;28;19936;-64
2023/07/18 16:20:39;;;;;;;;;;;;;;;;;;5014952;28;19921;-64
2023/07/18 16:23:05;;;;;;;;;;;;;;;;;;5014684;28;20049;-64
2023/07/18 16:25:31;;;;;;;;;;;;;;;;;;5014847;28;19922;-64
2023/07/18 16:27:57;;;;;;;;;;;;;;;;;;5014978;28;19922;-64
2023/07/18 16:30:23;;;;;;;;;;;;;;;;;;5015061;28;19964;-64
2023/07/18 16:32:49;;;;;;;;;;;;;;;;;;5014814;28;19983;-64
2023/07/18 16:35:15;;;;;;;;;;;;;;;;;;5014644;28;19944;-64
2023/07/18 16:37:42;;;;;;;;;;;;;;;;;;5014464;28;19921;-64